sensor_id;sensor_type;location;lat;lon;timestamp;pressure;altitude;pressure_sealevel;temperature
74485;BMP280;62942;52.462;10.846;2024-03-02T00:01:02;99690;;;
74485;BMP280;62942;52.462;10.846;2024-03-02T00:02:02;99690;;;
74485;BMP280;62942;52.462;10.846;2024-03-02T00:03:12;99690;;;
74485;BMP280;62942;52.462;10.846;2024-03-02T00:04:22;99680;;;
74485;BMP280;62942;52.462;10.846;2024-03-02T00:05:32;99680;;;
74485;BMP280;62942;52.462;10.846;2024-03-02T00:06:42;99680;;;
74485;BMP280;62942;52.462;10.846;2024-03-02T00:07:42;99690;;;
74485;BMP280;62942;52.462;10.846;2024-03-02T00:08:55;99680;;;
74485;BMP280;62942;52.462;10.846;2024-03-02T00:09:52;99680;;;
74485;BMP280;62942;52.462;10.846;2024-03-02T00:11:02;99680;;;
74485;BMP280;62942;52.462;10.846;2024-03-02T00:12:02;99680;;;
74485;BMP280;62942;52.462;10.846;2024-03-02T00:13:12;99670;;;
74485;BMP280;62942;52.462;10.846;2024-03-02T00:14:12;99670;;;
74485;BMP280;62942;52.462;10.846;2024-03-02T00:15:19;99670;;;
74485;BMP280;62942;52.462;10.846;2024-03-02T00:16:22;99680;;;
74485;BMP280;62942;52.462;10.846;2024-03-02T00:17:24;99680;;;
74485;BMP280;62942;52.462;10.846;2024-03-02T00:18:32;99670;;;
74485;BMP280;62942;52.462;10.846;2024-03-02T00:19:32;99670;;;
74485;BMP280;62942;52.462;10.846;2024-03-02T00:20:32;99670;;;
74485;BMP280;62942;52.462;10.846;2024-03-02T00:21:42;99670;;;
74485;BMP280;62942;52.462;10.846;2024-03-02T00:22:52;99670;;;
74485;BMP280;62942;52.462;10.846;2024-03-02T00:24:02;99670;;;
74485;BMP280;62942;52.462;10.846;2024-03-02T00:25:02;99670;;;
74485;BMP280;62942;52.462;10.846;2024-03-02T00:26:02;99670;;;
74485;BMP280;62942;52.462;10.846;2024-03-02T00:27:12;99660;;;
74485;BMP280;62942;52.462;10.846;2024-03-02T00:28:13;99660;;;
74485;BMP280;62942;52.462;10.846;2024-03-02T00:29:22;99670;;;
74485;BMP280;62942;52.462;10.846;2024-03-02T00:30:38;99670;;;
74485;BMP280;62942;52.462;10.846;2024-03-02T00:31:42;99670;;;
74485;BMP280;62942;52.462;10.846;2024-03-02T00:32:52;99670;;;
74485;BMP280;62942;52.462;10.846;2024-03-02T00:33:52;99660;;;
74485;BMP280;62942;52.462;10.846;2024-03-02T00:35:04;99670;;;
74485;BMP280;62942;52.462;10.846;2024-03-02T00:36:13;99670;;;
74485;BMP280;62942;52.462;10.846;2024-03-02T00:37:12;99670;;;
74485;BMP280;62942;52.462;10.846;2024-03-02T00:38:22;99670;;;
74485;BMP280;62942;52.462;10.846;2024-03-02T00:39:32;99670;;;
74485;BMP280;62942;52.462;10.846;2024-03-02T00:40:42;99670;;;
74485;BMP280;62942;52.462;10.846;2024-03-02T00:41:42;99670;;;
74485;BMP280;62942;52.462;10.846;2024-03-02T00:42:52;99670;;;
74485;BMP280;62942;52.462;10.846;2024-03-02T00:43:56;99670;;;
74485;BMP280;62942;52.462;10.846;2024-03-02T00:45:02;99670;;;
74485;BMP280;62942;52.462;10.846;2024-03-02T00:46:12;99670;;;
74485;BMP280;62942;52.462;10.846;2024-03-02T00:47:12;99670;;;
74485;BMP280;62942;52.462;10.846;2024-03-02T00:48:22;99670;;;
74485;BMP280;62942;52.462;10.846;2024-03-02T00:49:32;99670;;;
74485;BMP280;62942;52.462;10.846;2024-03-02T00:50:32;99670;;;
74485;BMP280;62942;52.462;10.846;2024-03-02T00:51:32;99660;;;
74485;BMP280;62942;52.462;10.846;2024-03-02T00:52:42;99670;;;
74485;BMP280;62942;52.462;10.846;2024-03-02T00:53:52;99670;;;
74485;BMP280;62942;52.462;10.846;2024-03-02T00:54:52;99680;;;
74485;BMP280;62942;52.462;10.846;2024-03-02T00:56:02;99670;;;
74485;BMP280;62942;52.462;10.846;2024-03-02T00:57:12;99670;;;
74485;BMP280;62942;52.462;10.846;2024-03-02T00:58:12;99670;;;
74485;BMP280;62942;52.462;10.846;2024-03-02T00:59:12;99670;;;
74485;BMP280;62942;52.462;10.846;2024-03-02T01:00:22;99670;;;
74485;BMP280;62942;52.462;10.846;2024-03-02T01:01:32;99670;;;
74485;BMP280;62942;52.462;10.846;2024-03-02T01:02:32;99670;;;
74485;BMP280;62942;52.462;10.846;2024-03-02T01:03:42;99670;;;
74485;BMP280;62942;52.462;10.846;2024-03-02T01:04:52;99670;;;
74485;BMP280;62942;52.462;10.846;2024-03-02T01:06:02;99660;;;
74485;BMP280;62942;52.462;10.846;2024-03-02T01:07:12;99660;;;
74485;BMP280;62942;52.462;10.846;2024-03-02T01:08:12;99660;;;
74485;BMP280;62942;52.462;10.846;2024-03-02T01:09:22;99660;;;
74485;BMP280;62942;52.462;10.846;2024-03-02T01:10:22;99660;;;
74485;BMP280;62942;52.462;10.846;2024-03-02T01:11:32;99650;;;
74485;BMP280;62942;52.462;10.846;2024-03-02T01:12:32;99660;;;
74485;BMP280;62942;52.462;10.846;2024-03-02T01:13:42;99660;;;
74485;BMP280;62942;52.462;10.846;2024-03-02T01:14:42;99660;;;
74485;BMP280;62942;52.462;10.846;2024-03-02T01:15:52;99660;;;
74485;BMP280;62942;52.462;10.846;2024-03-02T01:16:52;99660;;;
74485;BMP280;62942;52.462;10.846;2024-03-02T01:18:02;99660;;;
74485;BMP280;62942;52.462;10.846;2024-03-02T01:19:02;99660;;;
74485;BMP280;62942;52.462;10.846;2024-03-02T01:20:12;99660;;;
74485;BMP280;62942;52.462;10.846;2024-03-02T01:21:12;99660;;;
74485;BMP280;62942;52.462;10.846;2024-03-02T01:22:22;99660;;;
74485;BMP280;62942;52.462;10.846;2024-03-02T01:23:22;99660;;;
74485;BMP280;62942;52.462;10.846;2024-03-02T01:24:32;99660;;;
74485;BMP280;62942;52.462;10.846;2024-03-02T01:25:32;99660;;;
74485;BMP280;62942;52.462;10.846;2024-03-02T01:26:42;99660;;;
74485;BMP280;62942;52.462;10.846;2024-03-02T01:27:52;99660;;;
74485;BMP280;62942;52.462;10.846;2024-03-02T01:28:52;99670;;;
74485;BMP280;62942;52.462;10.846;2024-03-02T01:30:02;99660;;;
74485;BMP280;62942;52.462;10.846;2024-03-02T01:31:12;99660;;;
74485;BMP280;62942;52.462;10.846;2024-03-02T01:32:12;99660;;;
74485;BMP280;62942;52.462;10.846;2024-03-02T01:33:22;99660;;;
74485;BMP280;62942;52.462;10.846;2024-03-02T01:34:32;99660;;;
74485;BMP280;62942;52.462;10.846;2024-03-02T01:35:42;99650;;;
74485;BMP280;62942;52.462;10.846;2024-03-02T01:36:42;99650;;;
74485;BMP280;62942;52.462;10.846;2024-03-02T01:37:52;99650;;;
74485;BMP280;62942;52.462;10.846;2024-03-02T01:38:52;99650;;;
74485;BMP280;62942;52.462;10.846;2024-03-02T01:40:02;99660;;;
74485;BMP280;62942;52.462;10.846;2024-03-02T01:41:02;99660;;;
74485;BMP280;62942;52.462;10.846;2024-03-02T01:42:12;99660;;;
74485;BMP280;62942;52.462;10.846;2024-03-02T01:43:22;99660;;;
74485;BMP280;62942;52.462;10.846;2024-03-02T01:44:22;99660;;;
74485;BMP280;62942;52.462;10.846;2024-03-02T01:45:22;99660;;;
74485;BMP280;62942;52.462;10.846;2024-03-02T01:46:32;99660;;;
74485;BMP280;62942;52.462;10.846;2024-03-02T01:47:32;99660;;;
74485;BMP280;62942;52.462;10.846;2024-03-02T01:48:32;99660;;;
74485;BMP280;62942;52.462;10.846;2024-03-02T01:49:42;99660;;;
74485;BMP280;62942;52.462;10.846;2024-03-02T01:50:52;99660;;;
74485;BMP280;62942;52.462;10.846;2024-03-02T01:51:52;99670;;;
74485;BMP280;62942;52.462;10.846;2024-03-02T01:53:02;99650;;;
74485;BMP280;62942;52.462;10.846;2024-03-02T01:54:12;99670;;;
74485;BMP280;62942;52.462;10.846;2024-03-02T01:55:12;99670;;;
74485;BMP280;62942;52.462;10.846;2024-03-02T01:56:22;99670;;;
74485;BMP280;62942;52.462;10.846;2024-03-02T01:57:32;99670;;;
74485;BMP280;62942;52.462;10.846;2024-03-02T01:58:42;99670;;;
74485;BMP280;62942;52.462;10.846;2024-03-02T01:59:52;99670;;;
74485;BMP280;62942;52.462;10.846;2024-03-02T02:01:02;99660;;;
74485;BMP280;62942;52.462;10.846;2024-03-02T02:02:12;99670;;;
74485;BMP280;62942;52.462;10.846;2024-03-02T02:03:12;99670;;;
74485;BMP280;62942;52.462;10.846;2024-03-02T02:04:22;99660;;;
74485;BMP280;62942;52.462;10.846;2024-03-02T02:05:22;99660;;;
74485;BMP280;62942;52.462;10.846;2024-03-02T02:06:32;99650;;;
74485;BMP280;62942;52.462;10.846;2024-03-02T02:07:32;99650;;;
74485;BMP280;62942;52.462;10.846;2024-03-02T02:08:42;99650;;;
74485;BMP280;62942;52.462;10.846;2024-03-02T02:09:52;99650;;;
74485;BMP280;62942;52.462;10.846;2024-03-02T02:11:02;99640;;;
74485;BMP280;62942;52.462;10.846;2024-03-02T02:12:02;99650;;;
74485;BMP280;62942;52.462;10.846;2024-03-02T02:13:12;99650;;;
74485;BMP280;62942;52.462;10.846;2024-03-02T02:14:12;99650;;;
74485;BMP280;62942;52.462;10.846;2024-03-02T02:15:22;99660;;;
74485;BMP280;62942;52.462;10.846;2024-03-02T02:16:22;99650;;;
74485;BMP280;62942;52.462;10.846;2024-03-02T02:17:32;99650;;;
74485;BMP280;62942;52.462;10.846;2024-03-02T02:18:42;99650;;;
74485;BMP280;62942;52.462;10.846;2024-03-02T02:19:42;99660;;;
74485;BMP280;62942;52.462;10.846;2024-03-02T02:20:52;99650;;;
74485;BMP280;62942;52.462;10.846;2024-03-02T02:22:02;99660;;;
74485;BMP280;62942;52.462;10.846;2024-03-02T02:23:02;99650;;;
74485;BMP280;62942;52.462;10.846;2024-03-02T02:24:11;99660;;;
74485;BMP280;62942;52.462;10.846;2024-03-02T02:25:22;99660;;;
74485;BMP280;62942;52.462;10.846;2024-03-02T02:26:31;99650;;;
74485;BMP280;62942;52.462;10.846;2024-03-02T02:27:42;99650;;;
74485;BMP280;62942;52.462;10.846;2024-03-02T02:28:52;99650;;;
74485;BMP280;62942;52.462;10.846;2024-03-02T02:30:02;99650;;;
74485;BMP280;62942;52.462;10.846;2024-03-02T02:31:01;99650;;;
74485;BMP280;62942;52.462;10.846;2024-03-02T02:32:11;99650;;;
74485;BMP280;62942;52.462;10.846;2024-03-02T02:33:12;99650;;;
74485;BMP280;62942;52.462;10.846;2024-03-02T02:34:22;99650;;;
74485;BMP280;62942;52.462;10.846;2024-03-02T02:35:31;99640;;;
74485;BMP280;62942;52.462;10.846;2024-03-02T02:36:32;99650;;;
74485;BMP280;62942;52.462;10.846;2024-03-02T02:37:32;99640;;;
74485;BMP280;62942;52.462;10.846;2024-03-02T02:38:42;99650;;;
74485;BMP280;62942;52.462;10.846;2024-03-02T02:39:42;99640;;;
74485;BMP280;62942;52.462;10.846;2024-03-02T02:40:41;99640;;;
74485;BMP280;62942;52.462;10.846;2024-03-02T02:41:51;99640;;;
74485;BMP280;62942;52.462;10.846;2024-03-02T02:43:01;99640;;;
74485;BMP280;62942;52.462;10.846;2024-03-02T02:44:01;99630;;;
74485;BMP280;62942;52.462;10.846;2024-03-02T02:45:02;99630;;;
74485;BMP280;62942;52.462;10.846;2024-03-02T02:46:11;99630;;;
74485;BMP280;62942;52.462;10.846;2024-03-02T02:47:11;99630;;;
74485;BMP280;62942;52.462;10.846;2024-03-02T02:48:12;99640;;;
74485;BMP280;62942;52.462;10.846;2024-03-02T02:49:21;99640;;;
74485;BMP280;62942;52.462;10.846;2024-03-02T02:50:21;99640;;;
74485;BMP280;62942;52.462;10.846;2024-03-02T02:51:32;99650;;;
74485;BMP280;62942;52.462;10.846;2024-03-02T02:52:42;99650;;;
74485;BMP280;62942;52.462;10.846;2024-03-02T02:53:51;99660;;;
74485;BMP280;62942;52.462;10.846;2024-03-02T02:54:52;99650;;;
74485;BMP280;62942;52.462;10.846;2024-03-02T02:56:01;99650;;;
74485;BMP280;62942;52.462;10.846;2024-03-02T02:57:01;99660;;;
74485;BMP280;62942;52.462;10.846;2024-03-02T02:58:11;99660;;;
74485;BMP280;62942;52.462;10.846;2024-03-02T02:59:11;99650;;;
74485;BMP280;62942;52.462;10.846;2024-03-02T03:00:12;99660;;;
74485;BMP280;62942;52.462;10.846;2024-03-02T03:01:22;99650;;;
74485;BMP280;62942;52.462;10.846;2024-03-02T03:02:31;99650;;;
74485;BMP280;62942;52.462;10.846;2024-03-02T03:03:32;99650;;;
74485;BMP280;62942;52.462;10.846;2024-03-02T03:04:41;99650;;;
74485;BMP280;62942;52.462;10.846;2024-03-02T03:05:51;99650;;;
74485;BMP280;62942;52.462;10.846;2024-03-02T03:06:51;99650;;;
74485;BMP280;62942;52.462;10.846;2024-03-02T03:08:02;99650;;;
74485;BMP280;62942;52.462;10.846;2024-03-02T03:09:01;99650;;;
74485;BMP280;62942;52.462;10.846;2024-03-02T03:10:12;99650;;;
74485;BMP280;62942;52.462;10.846;2024-03-02T03:11:11;99640;;;
74485;BMP280;62942;52.462;10.846;2024-03-02T03:12:21;99640;;;
74485;BMP280;62942;52.462;10.846;2024-03-02T03:13:31;99650;;;
74485;BMP280;62942;52.462;10.846;2024-03-02T03:14:41;99650;;;
74485;BMP280;62942;52.462;10.846;2024-03-02T03:15:41;99650;;;
74485;BMP280;62942;52.462;10.846;2024-03-02T03:16:51;99650;;;
74485;BMP280;62942;52.462;10.846;2024-03-02T03:18:01;99650;;;
74485;BMP280;62942;52.462;10.846;2024-03-02T03:19:01;99650;;;
74485;BMP280;62942;52.462;10.846;2024-03-02T03:20:02;99650;;;
74485;BMP280;62942;52.462;10.846;2024-03-02T03:21:11;99650;;;
74485;BMP280;62942;52.462;10.846;2024-03-02T03:22:11;99650;;;
74485;BMP280;62942;52.462;10.846;2024-03-02T03:23:21;99650;;;
74485;BMP280;62942;52.462;10.846;2024-03-02T03:24:31;99640;;;
74485;BMP280;62942;52.462;10.846;2024-03-02T03:25:31;99650;;;
74485;BMP280;62942;52.462;10.846;2024-03-02T03:26:42;99650;;;
74485;BMP280;62942;52.462;10.846;2024-03-02T03:27:51;99650;;;
74485;BMP280;62942;52.462;10.846;2024-03-02T03:29:01;99630;;;
74485;BMP280;62942;52.462;10.846;2024-03-02T03:30:12;99630;;;
74485;BMP280;62942;52.462;10.846;2024-03-02T03:31:21;99630;;;
74485;BMP280;62942;52.462;10.846;2024-03-02T03:32:31;99630;;;
74485;BMP280;62942;52.462;10.846;2024-03-02T03:33:41;99630;;;
74485;BMP280;62942;52.462;10.846;2024-03-02T03:34:41;99640;;;
74485;BMP280;62942;52.462;10.846;2024-03-02T03:35:51;99650;;;
74485;BMP280;62942;52.462;10.846;2024-03-02T03:37:01;99640;;;
74485;BMP280;62942;52.462;10.846;2024-03-02T03:38:11;99640;;;
74485;BMP280;62942;52.462;10.846;2024-03-02T03:39:11;99640;;;
74485;BMP280;62942;52.462;10.846;2024-03-02T03:40:21;99640;;;
74485;BMP280;62942;52.462;10.846;2024-03-02T03:41:31;99650;;;
74485;BMP280;62942;52.462;10.846;2024-03-02T03:42:41;99650;;;
74485;BMP280;62942;52.462;10.846;2024-03-02T03:43:41;99640;;;
74485;BMP280;62942;52.462;10.846;2024-03-02T03:44:41;99650;;;
74485;BMP280;62942;52.462;10.846;2024-03-02T03:45:51;99640;;;
74485;BMP280;62942;52.462;10.846;2024-03-02T03:47:01;99650;;;
74485;BMP280;62942;52.462;10.846;2024-03-02T03:48:11;99650;;;
74485;BMP280;62942;52.462;10.846;2024-03-02T03:49:12;99640;;;
74485;BMP280;62942;52.462;10.846;2024-03-02T03:50:21;99640;;;
74485;BMP280;62942;52.462;10.846;2024-03-02T03:51:21;99640;;;
74485;BMP280;62942;52.462;10.846;2024-03-02T03:52:31;99650;;;
74485;BMP280;62942;52.462;10.846;2024-03-02T03:53:31;99650;;;
74485;BMP280;62942;52.462;10.846;2024-03-02T03:54:41;99650;;;
74485;BMP280;62942;52.462;10.846;2024-03-02T03:55:51;99640;;;
74485;BMP280;62942;52.462;10.846;2024-03-02T03:56:51;99650;;;
74485;BMP280;62942;52.462;10.846;2024-03-02T03:58:01;99640;;;
74485;BMP280;62942;52.462;10.846;2024-03-02T03:59:01;99640;;;
74485;BMP280;62942;52.462;10.846;2024-03-02T04:00:12;99640;;;
74485;BMP280;62942;52.462;10.846;2024-03-02T04:01:11;99640;;;
74485;BMP280;62942;52.462;10.846;2024-03-02T04:02:21;99640;;;
74485;BMP280;62942;52.462;10.846;2024-03-02T04:03:31;99640;;;
74485;BMP280;62942;52.462;10.846;2024-03-02T04:04:41;99640;;;
74485;BMP280;62942;52.462;10.846;2024-03-02T04:05:51;99640;;;
74485;BMP280;62942;52.462;10.846;2024-03-02T04:06:51;99640;;;
74485;BMP280;62942;52.462;10.846;2024-03-02T04:07:51;99640;;;
74485;BMP280;62942;52.462;10.846;2024-03-02T04:08:51;99640;;;
74485;BMP280;62942;52.462;10.846;2024-03-02T04:10:01;99640;;;
74485;BMP280;62942;52.462;10.846;2024-03-02T04:11:11;99640;;;
74485;BMP280;62942;52.462;10.846;2024-03-02T04:12:22;99650;;;
74485;BMP280;62942;52.462;10.846;2024-03-02T04:13:31;99650;;;
74485;BMP280;62942;52.462;10.846;2024-03-02T04:14:41;99640;;;
74485;BMP280;62942;52.462;10.846;2024-03-02T04:15:51;99640;;;
74485;BMP280;62942;52.462;10.846;2024-03-02T04:17:01;99640;;;
74485;BMP280;62942;52.462;10.846;2024-03-02T04:18:01;99640;;;
74485;BMP280;62942;52.462;10.846;2024-03-02T04:19:11;99640;;;
74485;BMP280;62942;52.462;10.846;2024-03-02T04:20:21;99640;;;
74485;BMP280;62942;52.462;10.846;2024-03-02T04:21:31;99640;;;
74485;BMP280;62942;52.462;10.846;2024-03-02T04:22:41;99640;;;
74485;BMP280;62942;52.462;10.846;2024-03-02T04:23:41;99640;;;
74485;BMP280;62942;52.462;10.846;2024-03-02T04:24:51;99650;;;
74485;BMP280;62942;52.462;10.846;2024-03-02T04:25:51;99650;;;
74485;BMP280;62942;52.462;10.846;2024-03-02T04:27:01;99650;;;
74485;BMP280;62942;52.462;10.846;2024-03-02T04:28:11;99650;;;
74485;BMP280;62942;52.462;10.846;2024-03-02T04:29:11;99650;;;
74485;BMP280;62942;52.462;10.846;2024-03-02T04:30:21;99650;;;
74485;BMP280;62942;52.462;10.846;2024-03-02T04:31:21;99650;;;
74485;BMP280;62942;52.462;10.846;2024-03-02T04:32:31;99650;;;
74485;BMP280;62942;52.462;10.846;2024-03-02T04:33:41;99650;;;
74485;BMP280;62942;52.462;10.846;2024-03-02T04:34:41;99650;;;
74485;BMP280;62942;52.462;10.846;2024-03-02T04:35:51;99660;;;
74485;BMP280;62942;52.462;10.846;2024-03-02T04:36:51;99660;;;
74485;BMP280;62942;52.462;10.846;2024-03-02T04:38:01;99650;;;
74485;BMP280;62942;52.462;10.846;2024-03-02T04:39:01;99650;;;
74485;BMP280;62942;52.462;10.846;2024-03-02T04:40:11;99650;;;
74485;BMP280;62942;52.462;10.846;2024-03-02T04:41:21;99650;;;
74485;BMP280;62942;52.462;10.846;2024-03-02T04:42:21;99650;;;
74485;BMP280;62942;52.462;10.846;2024-03-02T04:43:31;99650;;;
74485;BMP280;62942;52.462;10.846;2024-03-02T04:44:31;99650;;;
74485;BMP280;62942;52.462;10.846;2024-03-02T04:45:41;99650;;;
74485;BMP280;62942;52.462;10.846;2024-03-02T04:46:51;99650;;;
74485;BMP280;62942;52.462;10.846;2024-03-02T04:47:51;99650;;;
74485;BMP280;62942;52.462;10.846;2024-03-02T04:49:01;99650;;;
74485;BMP280;62942;52.462;10.846;2024-03-02T04:50:11;99650;;;
74485;BMP280;62942;52.462;10.846;2024-03-02T04:51:21;99650;;;
74485;BMP280;62942;52.462;10.846;2024-03-02T04:52:21;99650;;;
74485;BMP280;62942;52.462;10.846;2024-03-02T04:53:31;99640;;;
74485;BMP280;62942;52.462;10.846;2024-03-02T04:54:41;99650;;;
74485;BMP280;62942;52.462;10.846;2024-03-02T04:55:51;99650;;;
74485;BMP280;62942;52.462;10.846;2024-03-02T04:56:51;99650;;;
74485;BMP280;62942;52.462;10.846;2024-03-02T04:58:01;99650;;;
74485;BMP280;62942;52.462;10.846;2024-03-02T04:59:01;99650;;;
74485;BMP280;62942;52.462;10.846;2024-03-02T05:00:11;99650;;;
74485;BMP280;62942;52.462;10.846;2024-03-02T05:01:11;99650;;;
74485;BMP280;62942;52.462;10.846;2024-03-02T05:02:21;99650;;;
74485;BMP280;62942;52.462;10.846;2024-03-02T05:03:31;99640;;;
74485;BMP280;62942;52.462;10.846;2024-03-02T05:04:41;99650;;;
74485;BMP280;62942;52.462;10.846;2024-03-02T05:05:51;99650;;;
74485;BMP280;62942;52.462;10.846;2024-03-02T05:07:01;99650;;;
74485;BMP280;62942;52.462;10.846;2024-03-02T05:08:11;99650;;;
74485;BMP280;62942;52.462;10.846;2024-03-02T05:09:21;99650;;;
74485;BMP280;62942;52.462;10.846;2024-03-02T05:10:31;99660;;;
74485;BMP280;62942;52.462;10.846;2024-03-02T05:11:31;99660;;;
74485;BMP280;62942;52.462;10.846;2024-03-02T05:12:41;99650;;;
74485;BMP280;62942;52.462;10.846;2024-03-02T05:13:41;99640;;;
74485;BMP280;62942;52.462;10.846;2024-03-02T05:14:51;99650;;;
74485;BMP280;62942;52.462;10.846;2024-03-02T05:15:51;99660;;;
74485;BMP280;62942;52.462;10.846;2024-03-02T05:17:01;99660;;;
74485;BMP280;62942;52.462;10.846;2024-03-02T05:18:11;99670;;;
74485;BMP280;62942;52.462;10.846;2024-03-02T05:19:11;99660;;;
74485;BMP280;62942;52.462;10.846;2024-03-02T05:20:11;99650;;;
74485;BMP280;62942;52.462;10.846;2024-03-02T05:21:21;99660;;;
74485;BMP280;62942;52.462;10.846;2024-03-02T05:22:31;99660;;;
74485;BMP280;62942;52.462;10.846;2024-03-02T05:23:41;99660;;;
74485;BMP280;62942;52.462;10.846;2024-03-02T05:24:51;99660;;;
74485;BMP280;62942;52.462;10.846;2024-03-02T05:25:51;99660;;;
74485;BMP280;62942;52.462;10.846;2024-03-02T05:27:01;99660;;;
74485;BMP280;62942;52.462;10.846;2024-03-02T05:28:11;99660;;;
74485;BMP280;62942;52.462;10.846;2024-03-02T05:29:11;99660;;;
74485;BMP280;62942;52.462;10.846;2024-03-02T05:30:21;99660;;;
74485;BMP280;62942;52.462;10.846;2024-03-02T05:31:31;99650;;;
74485;BMP280;62942;52.462;10.846;2024-03-02T05:32:31;99660;;;
74485;BMP280;62942;52.462;10.846;2024-03-02T05:33:41;99660;;;
74485;BMP280;62942;52.462;10.846;2024-03-02T05:34:41;99660;;;
74485;BMP280;62942;52.462;10.846;2024-03-02T05:35:51;99660;;;
74485;BMP280;62942;52.462;10.846;2024-03-02T05:36:51;99660;;;
74485;BMP280;62942;52.462;10.846;2024-03-02T05:38:01;99660;;;
74485;BMP280;62942;52.462;10.846;2024-03-02T05:39:11;99660;;;
74485;BMP280;62942;52.462;10.846;2024-03-02T05:40:23;99660;;;
74485;BMP280;62942;52.462;10.846;2024-03-02T05:41:31;99670;;;
74485;BMP280;62942;52.462;10.846;2024-03-02T05:42:41;99650;;;
74485;BMP280;62942;52.462;10.846;2024-03-02T05:43:41;99650;;;
74485;BMP280;62942;52.462;10.846;2024-03-02T05:44:51;99660;;;
74485;BMP280;62942;52.462;10.846;2024-03-02T05:46:01;99660;;;
74485;BMP280;62942;52.462;10.846;2024-03-02T05:47:01;99660;;;
74485;BMP280;62942;52.462;10.846;2024-03-02T05:48:11;99660;;;
74485;BMP280;62942;52.462;10.846;2024-03-02T05:49:21;99660;;;
74485;BMP280;62942;52.462;10.846;2024-03-02T05:50:21;99660;;;
74485;BMP280;62942;52.462;10.846;2024-03-02T05:51:31;99660;;;
74485;BMP280;62942;52.462;10.846;2024-03-02T05:52:31;99670;;;
74485;BMP280;62942;52.462;10.846;2024-03-02T05:53:31;99660;;;
74485;BMP280;62942;52.462;10.846;2024-03-02T05:54:41;99660;;;
74485;BMP280;62942;52.462;10.846;2024-03-02T05:55:41;99670;;;
74485;BMP280;62942;52.462;10.846;2024-03-02T05:56:51;99670;;;
74485;BMP280;62942;52.462;10.846;2024-03-02T05:58:01;99670;;;
74485;BMP280;62942;52.462;10.846;2024-03-02T05:59:11;99680;;;
74485;BMP280;62942;52.462;10.846;2024-03-02T06:00:21;99680;;;
74485;BMP280;62942;52.462;10.846;2024-03-02T06:01:21;99680;;;
74485;BMP280;62942;52.462;10.846;2024-03-02T06:02:31;99680;;;
74485;BMP280;62942;52.462;10.846;2024-03-02T06:03:41;99680;;;
74485;BMP280;62942;52.462;10.846;2024-03-02T06:04:53;99680;;;
74485;BMP280;62942;52.462;10.846;2024-03-02T06:05:51;99680;;;
74485;BMP280;62942;52.462;10.846;2024-03-02T06:07:01;99680;;;
74485;BMP280;62942;52.462;10.846;2024-03-02T06:08:11;99680;;;
74485;BMP280;62942;52.462;10.846;2024-03-02T06:09:21;99680;;;
74485;BMP280;62942;52.462;10.846;2024-03-02T06:10:31;99680;;;
74485;BMP280;62942;52.462;10.846;2024-03-02T06:11:31;99680;;;
74485;BMP280;62942;52.462;10.846;2024-03-02T06:12:41;99680;;;
74485;BMP280;62942;52.462;10.846;2024-03-02T06:13:51;99680;;;
74485;BMP280;62942;52.462;10.846;2024-03-02T06:14:51;99680;;;
74485;BMP280;62942;52.462;10.846;2024-03-02T06:16:01;99680;;;
74485;BMP280;62942;52.462;10.846;2024-03-02T06:17:01;99680;;;
74485;BMP280;62942;52.462;10.846;2024-03-02T06:18:11;99680;;;
74485;BMP280;62942;52.462;10.846;2024-03-02T06:19:11;99680;;;
74485;BMP280;62942;52.462;10.846;2024-03-02T06:20:21;99670;;;
74485;BMP280;62942;52.462;10.846;2024-03-02T06:21:31;99680;;;
74485;BMP280;62942;52.462;10.846;2024-03-02T06:22:41;99680;;;
74485;BMP280;62942;52.462;10.846;2024-03-02T06:23:41;99680;;;
74485;BMP280;62942;52.462;10.846;2024-03-02T06:24:41;99680;;;
74485;BMP280;62942;52.462;10.846;2024-03-02T06:25:51;99690;;;
74485;BMP280;62942;52.462;10.846;2024-03-02T06:26:51;99690;;;
74485;BMP280;62942;52.462;10.846;2024-03-02T06:28:01;99690;;;
74485;BMP280;62942;52.462;10.846;2024-03-02T06:29:01;99690;;;
74485;BMP280;62942;52.462;10.846;2024-03-02T06:30:12;99690;;;
74485;BMP280;62942;52.462;10.846;2024-03-02T06:31:21;99700;;;
74485;BMP280;62942;52.462;10.846;2024-03-02T06:32:31;99690;;;
74485;BMP280;62942;52.462;10.846;2024-03-02T06:33:41;99690;;;
74485;BMP280;62942;52.462;10.846;2024-03-02T06:34:51;99700;;;
74485;BMP280;62942;52.462;10.846;2024-03-02T06:35:51;99700;;;
74485;BMP280;62942;52.462;10.846;2024-03-02T06:36:51;99700;;;
74485;BMP280;62942;52.462;10.846;2024-03-02T06:38:01;99690;;;
74485;BMP280;62942;52.462;10.846;2024-03-02T06:39:11;99690;;;
74485;BMP280;62942;52.462;10.846;2024-03-02T06:40:21;99690;;;
74485;BMP280;62942;52.462;10.846;2024-03-02T06:41:21;99690;;;
74485;BMP280;62942;52.462;10.846;2024-03-02T06:42:31;99700;;;
74485;BMP280;62942;52.462;10.846;2024-03-02T06:43:41;99700;;;
74485;BMP280;62942;52.462;10.846;2024-03-02T06:44:51;99690;;;
74485;BMP280;62942;52.462;10.846;2024-03-02T06:46:01;99700;;;
74485;BMP280;62942;52.462;10.846;2024-03-02T06:47:01;99700;;;
74485;BMP280;62942;52.462;10.846;2024-03-02T06:48:11;99700;;;
74485;BMP280;62942;52.462;10.846;2024-03-02T06:49:21;99700;;;
74485;BMP280;62942;52.462;10.846;2024-03-02T06:50:21;99700;;;
74485;BMP280;62942;52.462;10.846;2024-03-02T06:51:31;99700;;;
74485;BMP280;62942;52.462;10.846;2024-03-02T06:52:41;99710;;;
74485;BMP280;62942;52.462;10.846;2024-03-02T06:53:41;99700;;;
74485;BMP280;62942;52.462;10.846;2024-03-02T06:54:41;99700;;;
74485;BMP280;62942;52.462;10.846;2024-03-02T06:55:51;99700;;;
74485;BMP280;62942;52.462;10.846;2024-03-02T06:57:01;99710;;;
74485;BMP280;62942;52.462;10.846;2024-03-02T06:58:11;99710;;;
74485;BMP280;62942;52.462;10.846;2024-03-02T06:59:21;99690;;;
74485;BMP280;62942;52.462;10.846;2024-03-02T07:00:31;99690;;;
74485;BMP280;62942;52.462;10.846;2024-03-02T07:01:31;99690;;;
74485;BMP280;62942;52.462;10.846;2024-03-02T07:02:41;99700;;;
74485;BMP280;62942;52.462;10.846;2024-03-02T07:03:51;99690;;;
74485;BMP280;62942;52.462;10.846;2024-03-02T07:05:01;99700;;;
74485;BMP280;62942;52.462;10.846;2024-03-02T07:06:01;99700;;;